createdAt,value
2023-04-27T00:00:38.396Z,100811.92
2023-04-27T00:03:18.094Z,100811.10
2023-04-27T00:05:46.741Z,100807.13
2023-04-27T00:08:15.307Z,100804.20
2023-04-27T00:10:43.477Z,100799.88
2023-04-27T00:13:11.589Z,100799.86
2023-04-27T00:15:39.824Z,100802.61
2023-04-27T00:18:08.049Z,100803.10
2023-04-27T00:20:36.266Z,100805.67
2023-04-27T00:23:04.348Z,100804.62
2023-04-27T00:25:32.716Z,100804.44
2023-04-27T00:28:00.912Z,100805.99
2023-04-27T00:30:29.176Z,100809.78
2023-04-27T00:32:57.493Z,100811.32
2023-04-27T00:35:25.719Z,100811.98
2023-04-27T00:37:55.185Z,100812.30
2023-04-27T00:40:23.287Z,100813.84
2023-04-27T00:42:51.459Z,100814.34
2023-04-27T00:45:19.634Z,100812.93
2023-04-27T00:47:47.850Z,100818.27
2023-04-27T00:50:17.208Z,100816.70
2023-04-27T00:52:45.793Z,100817.73
2023-04-27T00:55:13.955Z,100819.61
2023-04-27T00:57:42.131Z,100818.25
2023-04-27T01:00:13.681Z,100813.23
2023-04-27T01:02:42.384Z,100810.99
2023-04-27T01:05:10.948Z,100810.13
2023-04-27T01:07:40.968Z,100811.01
2023-04-27T01:10:09.558Z,100806.02
2023-04-27T01:12:37.722Z,100810.66
2023-04-27T01:15:07.405Z,100804.28
2023-04-27T01:17:36.084Z,100809.30
2023-04-27T01:20:09.113Z,100806.72
2023-04-27T01:22:38.292Z,100806.55
2023-04-27T01:25:08.189Z,100807.42
2023-04-27T01:27:36.378Z,100809.84
2023-04-27T01:30:06.577Z,100807.09
2023-04-27T01:32:38.061Z,100810.70
2023-04-27T01:35:07.428Z,100813.80
2023-04-27T01:37:36.038Z,100816.22
2023-04-27T01:40:06.806Z,100819.84
2023-04-27T01:42:35.140Z,100817.43
2023-04-27T01:45:04.340Z,100820.53
2023-04-27T01:47:33.269Z,100822.44
2023-04-27T01:50:01.807Z,100824.33
2023-04-27T01:52:30.289Z,100826.94
2023-04-27T01:54:58.460Z,100828.84
2023-04-27T01:57:27.245Z,100828.68
2023-04-27T01:59:57.175Z,100831.09
2023-04-27T02:02:25.603Z,100835.23
2023-04-27T02:04:54.298Z,100832.15
2023-04-27T02:07:22.704Z,100837.64
2023-04-27T02:09:51.085Z,100838.70
2023-04-27T02:12:19.254Z,100841.63
2023-04-27T02:14:47.423Z,100836.11
2023-04-27T02:17:15.798Z,100833.69
2023-04-27T02:19:43.974Z,100838.69
2023-04-27T02:22:12.552Z,100836.80
2023-04-27T02:24:40.831Z,100839.55
2023-04-27T02:27:09.105Z,100837.13
2023-04-27T02:29:39.621Z,100840.91
2023-04-27T02:32:08.318Z,100838.67
2023-04-27T02:34:36.688Z,100842.31
2023-04-27T02:37:05.203Z,100842.33
2023-04-27T02:39:33.344Z,100840.27
2023-04-27T02:42:03.161Z,100841.98
2023-04-27T02:44:31.339Z,100843.55
2023-04-27T02:46:59.580Z,100845.62
2023-04-27T02:49:27.878Z,100844.27
2023-04-27T02:51:57.071Z,100846.67
2023-04-27T02:54:25.757Z,100847.70
2023-04-27T02:56:53.921Z,100849.45
2023-04-27T02:59:22.094Z,100849.80
2023-04-27T03:01:50.265Z,100850.84
2023-04-27T03:04:18.825Z,100849.80
2023-04-27T03:06:47.327Z,100849.80
2023-04-27T03:09:17.294Z,100850.48
2023-04-27T03:11:45.616Z,100849.81
2023-04-27T03:14:14.012Z,100848.80
2023-04-27T03:16:42.194Z,100850.52
2023-04-27T03:19:10.989Z,100845.70
2023-04-27T03:21:39.633Z,100847.25
2023-04-27T03:24:07.810Z,100853.46
2023-04-27T03:26:36.188Z,100854.84
2023-04-27T03:29:05.490Z,100861.58
2023-04-27T03:31:33.698Z,100864.16
2023-04-27T03:34:01.833Z,100862.79
2023-04-27T03:36:30.108Z,100858.48
2023-04-27T03:38:58.173Z,100862.46
2023-04-27T03:41:26.660Z,100863.49
2023-04-27T03:43:54.826Z,100860.73
2023-04-27T03:46:23.020Z,100862.46
2023-04-27T03:48:51.173Z,100868.35
2023-04-27T03:51:19.456Z,100866.61
2023-04-27T03:53:48.130Z,100868.34
2023-04-27T03:56:16.509Z,100870.42
2023-04-27T03:58:44.690Z,100874.39
2023-04-27T04:01:22.096Z,100878.36
2023-04-27T04:03:52.003Z,100877.34
2023-04-27T04:06:20.931Z,100881.14
2023-04-27T04:08:49.142Z,100884.60
2023-04-27T04:11:17.824Z,100886.34
2023-04-27T04:13:46.309Z,100886.52
2023-04-27T04:16:14.712Z,100887.55
2023-04-27T04:18:43.165Z,100891.18
2023-04-27T04:21:12.154Z,100900.52
2023-04-27T04:23:42.890Z,100901.39
2023-04-27T04:26:11.574Z,100907.27
2023-04-27T04:28:39.951Z,100908.66
2023-04-27T04:31:09.963Z,100914.88
2023-04-27T04:33:38.167Z,100918.88
2023-04-27T04:36:07.055Z,100919.55
2023-04-27T04:38:35.714Z,100922.15
2023-04-27T04:41:04.102Z,100920.77
2023-04-27T04:43:34.560Z,100929.42
2023-04-27T04:46:06.609Z,100926.48
2023-04-27T04:48:35.774Z,100925.63
2023-04-27T04:51:07.354Z,100925.98
2023-04-27T04:53:35.905Z,100929.95
2023-04-27T04:56:11.636Z,100931.16
2023-04-27T04:58:40.357Z,100936.87
2023-04-27T05:01:08.685Z,100935.14
2023-04-27T05:03:37.131Z,100938.41
2023-04-27T05:06:06.082Z,100938.77
2023-04-27T05:08:34.365Z,100941.53
2023-04-27T05:11:02.538Z,100940.66
2023-04-27T05:13:31.227Z,100940.98
2023-04-27T05:15:59.418Z,100942.19
2023-04-27T05:18:27.661Z,100943.39
2023-04-27T05:20:56.356Z,100947.02
2023-04-27T05:23:24.516Z,100945.08
2023-04-27T05:25:53.000Z,100950.79
2023-04-27T05:28:21.382Z,100955.25
2023-04-27T05:30:49.548Z,100955.05
2023-04-27T05:33:17.617Z,100955.17
2023-04-27T05:35:45.796Z,100953.06
2023-04-27T05:38:17.648Z,100950.59
2023-04-27T05:40:45.824Z,100951.91
2023-04-27T05:43:13.997Z,100952.70
2023-04-27T05:45:42.347Z,100958.69
2023-04-27T05:48:10.549Z,100958.95
2023-04-27T05:50:38.616Z,100960.26
2023-04-27T05:53:07.298Z,100964.67
2023-04-27T05:55:35.891Z,100969.79
2023-04-27T05:58:07.707Z,100969.55
2023-04-27T06:00:37.027Z,100967.91
2023-04-27T06:03:05.279Z,100968.20
2023-04-27T06:05:34.688Z,100967.80
2023-04-27T06:08:03.398Z,100972.63
2023-04-27T06:10:31.587Z,100976.35
2023-04-27T06:13:00.262Z,100973.15
2023-04-27T06:15:28.448Z,100970.48
2023-04-27T06:17:56.993Z,100966.27
2023-04-27T06:20:25.184Z,100966.89
2023-04-27T06:22:53.358Z,100966.14
2023-04-27T06:25:21.849Z,100969.72
2023-04-27T06:27:51.236Z,100966.36
2023-04-27T06:30:19.410Z,100969.91
2023-04-27T06:32:47.608Z,100966.15
2023-04-27T06:35:16.478Z,100966.55
2023-04-27T06:37:45.233Z,100970.27
2023-04-27T06:40:13.602Z,100966.67
2023-04-27T06:42:41.812Z,100964.08
2023-04-27T06:45:10.854Z,100965.83
2023-04-27T06:47:39.121Z,100965.64
2023-04-27T06:50:07.854Z,100964.77
2023-04-27T06:52:36.027Z,100964.95
2023-04-27T06:55:04.620Z,100963.77
2023-04-27T06:57:32.684Z,100961.15
2023-04-27T07:00:01.092Z,100965.80
2023-04-27T07:02:29.351Z,100964.23
2023-04-27T07:04:57.872Z,100965.80
2023-04-27T07:07:25.982Z,100968.42
2023-04-27T07:09:54.154Z,100968.38
2023-04-27T07:12:22.328Z,100962.48
2023-04-27T07:14:51.221Z,100966.09
2023-04-27T07:17:19.402Z,100965.73
2023-04-27T07:19:47.662Z,100965.35
2023-04-27T07:22:16.355Z,100970.05
2023-04-27T07:24:44.827Z,100967.43
2023-04-27T07:27:13.819Z,100965.83
2023-04-27T07:29:42.613Z,100965.96
2023-04-27T07:32:10.845Z,100964.67
2023-04-27T07:34:51.971Z,100959.80
2023-04-27T07:37:22.508Z,100961.97
2023-04-27T07:39:54.658Z,100960.05
2023-04-27T07:42:22.717Z,100961.16
2023-04-27T07:44:52.218Z,100959.61
2023-04-27T07:47:20.491Z,100958.80
2023-04-27T07:49:48.689Z,100959.48
2023-04-27T07:52:16.837Z,100956.15
2023-04-27T07:54:44.912Z,100955.02
2023-04-27T07:57:12.975Z,100955.24
2023-04-27T07:59:41.147Z,100954.11
2023-04-27T08:02:19.241Z,100957.49
2023-04-27T08:04:50.301Z,100960.18
2023-04-27T08:07:19.632Z,100965.49
2023-04-27T08:09:52.381Z,100970.66
2023-04-27T08:12:20.545Z,100973.57
2023-04-27T08:14:48.715Z,100972.56
2023-04-27T08:17:18.558Z,100972.12
2023-04-27T08:19:46.716Z,100977.17
2023-04-27T08:22:15.079Z,100977.44
2023-04-27T08:24:43.249Z,100979.75
2023-04-27T08:27:11.467Z,100979.17
2023-04-27T08:29:39.599Z,100979.61
2023-04-27T08:32:08.478Z,100980.17
2023-04-27T08:34:36.623Z,100981.78
2023-04-27T08:37:04.939Z,100983.83
2023-04-27T08:39:33.207Z,100984.46
2023-04-27T08:42:01.391Z,100983.35
2023-04-27T08:44:29.863Z,100979.86
2023-04-27T08:46:58.036Z,100974.33
2023-04-27T08:49:26.419Z,100973.93
2023-04-27T08:51:54.581Z,100975.16
2023-04-27T08:54:22.752Z,100975.38
2023-04-27T08:56:50.966Z,100970.70
2023-04-27T08:59:19.195Z,100970.84
2023-04-27T09:01:49.291Z,100977.13
2023-04-27T09:04:18.763Z,100977.52
2023-04-27T09:06:47.099Z,100976.54
2023-04-27T09:09:25.541Z,100979.31
2023-04-27T09:11:53.793Z,100974.84
2023-04-27T09:14:24.018Z,100972.97
2023-04-27T09:16:58.091Z,100974.26
2023-04-27T09:19:28.738Z,100978.32
2023-04-27T09:22:08.073Z,100970.09
2023-04-27T09:24:36.455Z,100971.04
2023-04-27T09:27:05.359Z,100971.68
2023-04-27T09:29:37.837Z,100969.52
2023-04-27T09:32:20.936Z,100969.05
2023-04-27T09:34:49.321Z,100969.82
2023-04-27T09:37:17.591Z,100970.27
2023-04-27T09:39:46.278Z,100969.63
2023-04-27T09:42:16.088Z,100970.17
2023-04-27T09:44:44.265Z,100973.61
2023-04-27T09:47:13.877Z,100975.75
2023-04-27T09:49:42.138Z,100975.95
2023-04-27T09:52:10.630Z,100976.23
2023-04-27T09:54:39.201Z,100975.33
2023-04-27T09:57:21.813Z,100979.36
2023-04-27T10:00:20.711Z,100977.78
2023-04-27T10:03:04.410Z,100977.72
2023-04-27T10:05:43.366Z,100978.91
2023-04-27T10:08:11.842Z,100974.06
2023-04-27T10:10:48.315Z,100964.89
2023-04-27T10:13:24.690Z,100967.39
2023-04-27T10:15:53.880Z,100962.17
2023-04-27T10:18:27.784Z,100958.63
2023-04-27T10:20:56.154Z,100956.29
2023-04-27T10:23:25.773Z,100960.11
2023-04-27T10:25:54.869Z,100959.70
2023-04-27T10:28:22.930Z,100959.45
2023-04-27T10:30:51.226Z,100967.75
2023-04-27T10:33:22.018Z,100972.96
2023-04-27T10:36:00.626Z,100985.34
2023-04-27T10:38:32.923Z,100985.45
2023-04-27T10:41:07.153Z,100988.24
2023-04-27T10:43:35.834Z,100988.54
2023-04-27T10:46:22.138Z,100988.08
2023-04-27T10:48:50.391Z,100989.23
2023-04-27T10:51:18.581Z,100992.59
2023-04-27T10:53:52.676Z,100998.70
2023-04-27T10:56:20.954Z,100997.33
2023-04-27T10:58:49.732Z,100997.65
2023-04-27T11:01:27.867Z,100999.02
2023-04-27T11:03:57.988Z,100994.04
2023-04-27T11:06:28.614Z,100991.27
2023-04-27T11:08:57.372Z,100992.20
2023-04-27T11:11:26.527Z,100992.25
2023-04-27T11:13:56.000Z,100996.18
2023-04-27T11:16:24.642Z,100994.63
2023-04-27T11:18:52.807Z,100992.79
2023-04-27T11:21:22.516Z,100991.10
2023-04-27T11:23:50.606Z,100986.98
2023-04-27T11:26:21.785Z,100984.23
2023-04-27T11:28:59.965Z,100982.14
2023-04-27T11:31:38.401Z,100985.57
2023-04-27T11:34:08.162Z,100987.16
2023-04-27T11:36:36.756Z,100985.81
2023-04-27T11:39:06.776Z,100994.67
2023-04-27T11:41:39.320Z,100985.64
2023-04-27T11:44:09.029Z,100985.83
2023-04-27T11:46:38.189Z,100985.21
2023-04-27T11:49:10.838Z,100979.05
2023-04-27T11:51:40.329Z,100982.59
2023-04-27T11:54:08.528Z,100986.19
2023-04-27T11:56:41.798Z,100984.77
2023-04-27T11:59:27.894Z,100978.77
2023-04-27T12:01:56.187Z,100980.02
2023-04-27T12:04:24.336Z,100979.36
2023-04-27T12:06:52.814Z,100979.95
2023-04-27T12:09:21.091Z,100980.63
2023-04-27T12:11:49.263Z,100980.30
2023-04-27T12:14:19.586Z,100976.73
2023-04-27T12:16:47.678Z,100977.67
2023-04-27T12:19:15.828Z,100977.69
2023-04-27T12:21:43.898Z,100981.33
2023-04-27T12:24:12.599Z,100982.28
2023-04-27T12:26:41.166Z,100990.83
2023-04-27T12:29:09.426Z,100987.66
2023-04-27T12:31:37.817Z,100991.02
2023-04-27T12:34:06.216Z,100988.69
2023-04-27T12:36:34.363Z,100988.85
2023-04-27T12:39:17.175Z,100984.61
2023-04-27T12:41:46.479Z,100986.86
2023-04-27T12:44:15.447Z,100990.40
2023-04-27T12:46:44.865Z,100991.64
2023-04-27T12:49:13.049Z,100993.18
2023-04-27T12:51:41.940Z,100989.39
2023-04-27T12:54:11.377Z,100992.08
2023-04-27T12:56:39.917Z,100986.71
2023-04-27T12:59:08.868Z,100984.40
2023-04-27T13:01:37.557Z,100980.55
2023-04-27T13:04:07.428Z,100985.34
2023-04-27T13:06:35.779Z,100983.49
2023-04-27T13:09:04.165Z,100984.23
2023-04-27T13:11:32.526Z,100979.70
2023-04-27T13:14:02.163Z,100977.47
2023-04-27T13:16:30.370Z,100977.98
2023-04-27T13:18:58.585Z,100983.45
2023-04-27T13:21:27.266Z,100984.56
2023-04-27T13:23:59.543Z,100978.42
2023-04-27T13:26:28.320Z,100984.95
2023-04-27T13:28:57.422Z,100983.43
2023-04-27T13:31:25.692Z,100986.02
2023-04-27T13:33:53.960Z,100996.37
2023-04-27T13:36:22.574Z,100999.15
2023-04-27T13:38:51.131Z,101007.40
2023-04-27T13:41:19.405Z,101009.11
2023-04-27T13:43:47.485Z,101014.42
2023-04-27T13:46:15.673Z,101018.02
2023-04-27T13:48:43.816Z,101018.16
2023-04-27T13:51:11.985Z,101020.40
2023-04-27T13:53:40.379Z,101018.55
2023-04-27T13:56:08.671Z,101017.84
2023-04-27T13:58:37.326Z,101020.48
2023-04-27T14:01:05.644Z,101023.20
2023-04-27T14:03:34.330Z,101021.73
2023-04-27T14:06:02.770Z,101021.27
2023-04-27T14:08:31.854Z,101019.73
2023-04-27T14:11:00.140Z,101019.76
2023-04-27T14:13:28.202Z,101017.86
2023-04-27T14:15:56.375Z,101014.56
2023-04-27T14:18:31.918Z,101013.59
2023-04-27T14:21:01.216Z,101012.54
2023-04-27T14:23:29.800Z,101011.14
2023-04-27T14:25:58.078Z,101011.05
2023-04-27T14:28:26.687Z,101011.71
2023-04-27T14:30:54.729Z,101008.04
2023-04-27T14:33:22.907Z,101003.02
2023-04-27T14:35:51.175Z,101000.85
2023-04-27T14:38:19.248Z,100999.77
2023-04-27T14:40:47.826Z,101000.11
2023-04-27T14:43:17.229Z,101006.30
2023-04-27T14:45:52.908Z,101008.66
2023-04-27T14:48:22.379Z,101007.89
2023-04-27T14:50:50.761Z,101011.27
2023-04-27T14:53:18.939Z,101010.12
2023-04-27T14:55:47.105Z,101011.73
2023-04-27T14:58:15.782Z,101009.27
2023-04-27T15:00:43.964Z,101014.20
2023-04-27T15:03:12.433Z,101011.55
2023-04-27T15:05:40.816Z,101009.00
2023-04-27T15:08:08.988Z,101010.02
2023-04-27T15:10:37.160Z,101011.05
2023-04-27T15:13:05.342Z,101007.37
2023-04-27T15:15:33.401Z,101009.20
2023-04-27T15:18:01.669Z,101007.54
2023-04-27T15:20:29.949Z,101005.98
2023-04-27T15:22:58.229Z,101006.78
2023-04-27T15:25:26.395Z,101007.34
2023-04-27T15:27:54.672Z,101012.15
2023-04-27T15:30:22.952Z,101007.64
2023-04-27T15:32:51.059Z,101004.11
2023-04-27T15:35:19.320Z,100999.65
2023-04-27T15:37:48.071Z,100997.82
2023-04-27T15:40:16.558Z,100994.23
2023-04-27T15:42:44.729Z,100993.36
2023-04-27T15:45:12.908Z,100995.02
2023-04-27T15:47:41.109Z,100992.95
2023-04-27T15:50:09.586Z,100997.34
2023-04-27T15:52:37.722Z,100996.30
2023-04-27T15:55:06.201Z,100994.52
2023-04-27T15:57:34.795Z,100997.73
2023-04-27T16:00:07.258Z,100994.23
2023-04-27T16:02:39.747Z,100993.19
2023-04-27T16:05:08.925Z,100994.59
2023-04-27T16:07:37.616Z,100994.90
2023-04-27T16:10:07.015Z,100998.49
2023-04-27T16:12:36.224Z,100999.41
2023-04-27T16:15:04.991Z,101000.33
2023-04-27T16:17:37.371Z,100998.67
2023-04-27T16:20:09.705Z,100994.35
2023-04-27T16:22:38.215Z,100993.55
2023-04-27T16:25:10.825Z,100993.50
2023-04-27T16:27:39.681Z,100992.48
2023-04-27T16:30:08.364Z,100990.11
2023-04-27T16:32:38.127Z,100990.52
2023-04-27T16:35:08.066Z,100987.45
2023-04-27T16:37:36.461Z,100991.14
2023-04-27T16:40:07.057Z,100989.73
2023-04-27T16:42:35.685Z,100985.14
2023-04-27T16:45:04.462Z,100986.28
2023-04-27T16:47:32.776Z,100986.02
2023-04-27T16:50:01.206Z,100986.86
2023-04-27T16:52:29.490Z,100988.92
2023-04-27T16:54:57.669Z,100984.77
2023-04-27T16:57:26.053Z,100990.34
2023-04-27T16:59:54.213Z,100985.25
2023-04-27T17:02:25.649Z,100992.69
2023-04-27T17:04:54.635Z,100990.14
2023-04-27T17:07:23.095Z,100993.31
2023-04-27T17:09:51.306Z,100993.55
2023-04-27T17:12:19.581Z,100997.14
2023-04-27T17:14:47.646Z,100993.71
2023-04-27T17:17:15.720Z,100992.09
2023-04-27T17:19:43.898Z,100996.44
2023-04-27T17:22:13.496Z,100996.36
2023-04-27T17:24:41.692Z,100998.42
2023-04-27T17:27:10.745Z,100996.51
2023-04-27T17:29:38.831Z,100998.58
2023-04-27T17:32:07.110Z,100997.29
2023-04-27T17:34:35.995Z,100996.15
2023-04-27T17:37:04.375Z,100994.61
2023-04-27T17:39:33.260Z,100993.97
2023-04-27T17:42:01.442Z,100992.70
2023-04-27T17:44:29.609Z,100995.77
2023-04-27T17:46:57.698Z,100991.88
2023-04-27T17:49:25.975Z,100994.16
2023-04-27T17:51:54.127Z,100995.42
2023-04-27T17:54:22.314Z,100999.11
2023-04-27T17:56:50.368Z,101006.64
2023-04-27T17:59:18.658Z,101008.20
2023-04-27T18:01:47.561Z,101007.51
2023-04-27T18:04:15.852Z,101007.30
2023-04-27T18:06:44.084Z,101014.22
2023-04-27T18:09:12.741Z,101012.20
2023-04-27T18:11:41.450Z,101014.71
2023-04-27T18:14:09.532Z,101016.63
2023-04-27T18:16:37.809Z,101021.09
2023-04-27T18:19:06.387Z,101025.39
2023-04-27T18:21:34.556Z,101029.97
2023-04-27T18:24:02.722Z,101028.94
2023-04-27T18:26:31.408Z,101029.48
2023-04-27T18:28:59.708Z,101031.39
2023-04-27T18:31:28.699Z,101037.33
2023-04-27T18:33:57.049Z,101037.67
2023-04-27T18:36:27.687Z,101036.77
2023-04-27T18:38:56.155Z,101035.70
2023-04-27T18:41:24.950Z,101042.54
2023-04-27T18:43:53.317Z,101047.88
2023-04-27T18:46:21.564Z,101054.42
2023-04-27T18:48:49.772Z,101057.84
2023-04-27T18:51:17.836Z,101056.37
2023-04-27T18:53:46.006Z,101054.73
2023-04-27T18:56:15.001Z,101059.32
2023-04-27T18:58:43.070Z,101063.71
2023-04-27T19:01:22.372Z,101064.99
2023-04-27T19:03:51.114Z,101069.41
2023-04-27T19:06:21.128Z,101071.74
2023-04-27T19:08:49.896Z,101070.92
2023-04-27T19:11:22.299Z,101068.73
2023-04-27T19:13:51.052Z,101074.33
2023-04-27T19:16:19.277Z,101079.38
2023-04-27T19:18:47.600Z,101073.00
2023-04-27T19:21:15.870Z,101075.10
2023-04-27T19:23:45.791Z,101074.59
2023-04-27T19:26:14.338Z,101073.91
2023-04-27T19:28:42.763Z,101072.38
2023-04-27T19:31:11.060Z,101073.27
2023-04-27T19:33:46.787Z,101077.08
2023-04-27T19:36:15.252Z,101077.42
2023-04-27T19:38:43.594Z,101076.91
2023-04-27T19:41:14.261Z,101081.76
2023-04-27T19:43:42.641Z,101077.60
2023-04-27T19:46:11.054Z,101086.77
2023-04-27T19:48:39.299Z,101084.35
2023-04-27T19:51:11.147Z,101088.66
2023-04-27T19:53:39.417Z,101089.17
2023-04-27T19:56:07.696Z,101093.14
2023-04-27T19:58:36.075Z,101097.98
2023-04-27T20:01:04.244Z,101098.13
2023-04-27T20:03:32.544Z,101102.62
2023-04-27T20:06:01.139Z,101103.30
2023-04-27T20:08:29.679Z,101107.08
2023-04-27T20:10:57.859Z,101108.28
2023-04-27T20:13:26.136Z,101105.67
2023-04-27T20:15:54.365Z,101101.85
2023-04-27T20:18:22.569Z,101102.36
2023-04-27T20:20:50.845Z,101104.59
2023-04-27T20:23:19.022Z,101103.91
2023-04-27T20:25:47.191Z,101104.23
2023-04-27T20:28:15.264Z,101102.83
2023-04-27T20:30:43.356Z,101104.88
2023-04-27T20:33:13.385Z,101102.78
2023-04-27T20:35:42.760Z,101103.63
2023-04-27T20:38:10.921Z,101100.48
2023-04-27T20:40:39.707Z,101099.59
2023-04-27T20:43:08.190Z,101094.73
2023-04-27T20:45:36.705Z,101096.44
2023-04-27T20:48:08.060Z,101093.13
2023-04-27T20:50:37.215Z,101086.90
2023-04-27T20:53:05.793Z,101088.61
2023-04-27T20:55:34.562Z,101085.98
2023-04-27T20:58:02.752Z,101086.65
2023-04-27T21:00:30.920Z,101085.60
2023-04-27T21:02:59.117Z,101090.23
2023-04-27T21:05:27.370Z,101089.35
2023-04-27T21:07:55.848Z,101089.50
2023-04-27T21:10:24.134Z,101089.98
2023-04-27T21:12:52.300Z,101090.13
2023-04-27T21:15:20.677Z,101095.77
2023-04-27T21:17:48.875Z,101091.42
2023-04-27T21:20:17.335Z,101091.05
2023-04-27T21:22:45.392Z,101089.31
2023-04-27T21:25:13.465Z,101088.25
2023-04-27T21:27:41.638Z,101093.92
2023-04-27T21:30:10.630Z,101090.65
2023-04-27T21:32:39.726Z,101091.31
2023-04-27T21:35:08.840Z,101090.76
2023-04-27T21:37:37.308Z,101090.21
2023-04-27T21:40:06.592Z,101093.82
2023-04-27T21:42:34.667Z,101091.39
2023-04-27T21:45:04.559Z,101094.10
2023-04-27T21:47:32.679Z,101089.94
2023-04-27T21:50:00.925Z,101088.70
2023-04-27T21:52:29.302Z,101090.41
2023-04-27T21:54:57.489Z,101090.21
2023-04-27T21:57:25.643Z,101089.17
2023-04-27T21:59:53.936Z,101090.72
2023-04-27T22:02:22.681Z,101096.86
2023-04-27T22:04:51.881Z,101093.02
2023-04-27T22:07:20.178Z,101094.19
2023-04-27T22:09:48.243Z,101093.78
2023-04-27T22:12:16.419Z,101093.73
2023-04-27T22:14:44.587Z,101091.27
2023-04-27T22:17:12.763Z,101092.95
2023-04-27T22:19:41.653Z,101094.80
2023-04-27T22:22:10.545Z,101092.69
2023-04-27T22:24:38.711Z,101091.44
2023-04-27T22:27:06.795Z,101092.26
2023-04-27T22:29:35.056Z,101090.82
2023-04-27T22:32:03.363Z,101092.69
2023-04-27T22:34:32.326Z,101094.22
2023-04-27T22:37:00.509Z,101095.58
2023-04-27T22:39:28.770Z,101091.98
2023-04-27T22:41:56.951Z,101090.92
2023-04-27T22:44:25.113Z,101088.84
2023-04-27T22:46:53.330Z,101089.33
2023-04-27T22:49:21.562Z,101088.48
2023-04-27T22:51:50.450Z,101090.51
2023-04-27T22:54:18.811Z,101086.02
2023-04-27T22:56:47.003Z,101088.05
2023-04-27T22:59:15.274Z,101080.80
2023-04-27T23:01:43.342Z,101081.97
2023-04-27T23:04:11.567Z,101084.67
2023-04-27T23:06:39.891Z,101082.92
2023-04-27T23:09:08.378Z,101083.94
2023-04-27T23:11:36.952Z,101084.27
2023-04-27T23:14:05.129Z,101083.38
2023-04-27T23:16:33.311Z,101080.08
2023-04-27T23:19:01.878Z,101079.54
2023-04-27T23:21:30.049Z,101076.08
2023-04-27T23:23:58.222Z,101074.84
2023-04-27T23:26:26.394Z,101073.42
2023-04-27T23:28:54.703Z,101079.91
2023-04-27T23:31:23.930Z,101079.37
2023-04-27T23:33:52.448Z,101082.27
2023-04-27T23:36:20.518Z,101080.69
2023-04-27T23:38:48.694Z,101078.96
2023-04-27T23:41:16.765Z,101079.14
2023-04-27T23:43:45.138Z,101081.01
2023-04-27T23:46:13.457Z,101079.48
2023-04-27T23:48:42.720Z,101081.02
2023-04-27T23:51:10.782Z,101081.21
2023-04-27T23:53:38.951Z,101082.23
2023-04-27T23:56:19.022Z,101080.68
2023-04-27T23:58:47.178Z,101073.77
